Terminal Aerodrome Forecast
Issued by NWS Brownsville, TX

Home | Current Version | Previous Version | Text Only | Print | Product List | Glossary On
Versions: 1 2 3 4 5 6 7 8 9 10 11 12 13 14 15 16 17 18 19
000
FTUS44 KBRO 210301 AAA
TAFHRL
TAF AMD
KHRL 210301Z 2103/2124 02006KT P6SM VCSH OVC030
     FM210600 09005KT 4SM BR OVC010
     FM211200 12005KT 2SM -RA BR OVC007
     FM211800 12012KT P6SM VCSH SCT015 BKN050 PROB30 2118/2124 6SM
      -SHRA BR BKN015=

USA.gov is the U.S. government's official web portal to all federal, state and local government web resources and services.